createdAt,value
2023-02-22T00:18:20.325Z,0.95
2023-02-22T00:20:49.878Z,0.94
2023-02-22T00:23:23.220Z,0.86
2023-02-22T00:25:52.503Z,0.76
2023-02-22T00:28:24.113Z,0.74
2023-02-22T00:30:54.701Z,0.71
2023-02-22T00:33:25.467Z,0.71
2023-02-22T00:35:54.969Z,0.71
2023-02-22T00:38:24.613Z,0.68
2023-02-22T00:40:55.516Z,0.67
2023-02-22T00:43:27.176Z,0.62
2023-02-22T00:45:57.311Z,0.58
2023-02-22T00:48:29.377Z,0.54
2023-02-22T00:50:58.840Z,0.52
2023-02-22T00:53:29.217Z,0.47
2023-02-22T00:55:58.645Z,0.47
2023-02-22T00:58:29.978Z,0.44
2023-02-22T01:01:00.753Z,0.44
2023-02-22T01:03:32.191Z,0.42
2023-02-22T01:06:02.387Z,0.40
2023-02-22T01:08:34.192Z,0.41
2023-02-22T01:11:03.726Z,0.36
2023-02-22T01:13:34.889Z,0.32
2023-02-22T01:16:08.230Z,0.31
2023-02-22T01:18:39.299Z,0.27
2023-02-22T01:21:08.777Z,0.27
2023-02-22T01:23:38.573Z,0.25
2023-02-22T01:26:07.959Z,0.23
2023-02-22T01:28:38.579Z,0.20
2023-02-22T01:31:08.029Z,0.14
2023-02-22T01:33:39.099Z,0.09
2023-02-22T01:36:11.351Z,0.09
2023-02-22T01:38:40.871Z,0.06
2023-02-22T01:41:10.280Z,0.07
2023-02-22T01:43:39.881Z,0.09
2023-02-22T01:46:24.379Z,0.14
2023-02-22T01:49:00.228Z,0.20
2023-02-22T01:51:37.472Z,0.18
2023-02-22T01:54:13.606Z,0.18
2023-02-22T01:57:02.684Z,0.18
2023-02-22T01:59:39.935Z,0.16
2023-02-22T02:02:09.516Z,0.11
2023-02-22T02:04:42.618Z,0.06
2023-02-22T02:07:16.336Z,0.00
2023-02-22T02:09:54.134Z,-0.04
2023-02-22T02:12:24.476Z,-0.10
2023-02-22T02:14:54.574Z,-0.14
2023-02-22T02:17:24.934Z,-0.17
2023-02-22T02:20:08.248Z,-0.19
2023-02-22T02:22:48.773Z,-0.25
2023-02-22T02:25:52.354Z,-0.27
2023-02-22T02:29:21.946Z,-0.28
2023-02-22T02:32:33.341Z,-0.32
2023-02-22T02:35:13.881Z,-0.33
2023-02-22T02:37:56.862Z,-0.33
2023-02-22T02:40:42.203Z,-0.36
2023-02-22T02:43:22.863Z,-0.37
2023-02-22T02:46:01.279Z,-0.38
2023-02-22T02:48:36.737Z,-0.38
2023-02-22T02:51:18.567Z,-0.41
2023-02-22T02:53:51.325Z,-0.40
2023-02-22T02:56:23.324Z,-0.43
2023-02-22T02:58:55.607Z,-0.48
2023-02-22T03:01:51.580Z,-0.51
2023-02-22T03:04:39.445Z,-0.54
2023-02-22T03:07:34.700Z,-0.59
2023-02-22T03:10:43.739Z,-0.66
2023-02-22T03:13:23.213Z,-0.72
2023-02-22T03:16:02.711Z,-0.69
2023-02-22T03:18:46.728Z,-0.66
2023-02-22T03:21:27.637Z,-0.59
2023-02-22T03:24:08.412Z,-0.65
2023-02-22T03:26:43.233Z,-0.54
2023-02-22T03:29:16.655Z,-0.54
2023-02-22T03:31:50.161Z,-0.41
2023-02-22T03:34:32.232Z,-0.41
2023-02-22T03:37:14.454Z,-0.39
2023-02-22T03:39:48.462Z,-0.35
2023-02-22T03:42:23.819Z,-0.26
2023-02-22T03:44:58.485Z,-0.15
2023-02-22T03:47:39.988Z,-0.15
2023-02-22T03:50:16.413Z,-0.03
2023-02-22T03:52:48.326Z,0.00
2023-02-22T03:55:29.577Z,0.07
2023-02-22T03:58:03.247Z,0.11
2023-02-22T04:00:36.461Z,0.11
2023-02-22T04:03:06.292Z,0.10
2023-02-22T04:05:35.885Z,0.05
2023-02-22T04:08:07.407Z,0.01
2023-02-22T04:10:37.904Z,-0.02
2023-02-22T04:13:07.617Z,-0.06
2023-02-22T04:15:39.539Z,-0.11
2023-02-22T04:18:11.762Z,-0.13
2023-02-22T04:20:41.270Z,-0.16
2023-02-22T04:23:16.967Z,-0.17
2023-02-22T04:25:46.471Z,-0.15
2023-02-22T04:28:19.529Z,-0.13
2023-02-22T04:30:56.596Z,-0.09
2023-02-22T04:33:26.649Z,-0.06
2023-02-22T04:35:57.710Z,-0.03
2023-02-22T04:38:29.006Z,0.01
2023-02-22T04:41:01.425Z,0.02
2023-02-22T04:43:31.097Z,0.00
2023-02-22T04:46:08.670Z,-0.05
2023-02-22T04:48:38.148Z,-0.11
2023-02-22T04:51:08.518Z,-0.17
2023-02-22T04:53:40.390Z,-0.24
2023-02-22T04:56:10.141Z,-0.29
2023-02-22T04:58:40.027Z,-0.31
2023-02-22T05:01:09.739Z,-0.32
2023-02-22T05:03:39.671Z,-0.32
2023-02-22T05:06:10.004Z,-0.30
2023-02-22T05:08:40.915Z,-0.32
2023-02-22T05:11:10.679Z,-0.37
2023-02-22T05:13:40.060Z,-0.41
2023-02-22T05:16:09.598Z,-0.45
2023-02-22T05:18:39.342Z,-0.50
2023-02-22T05:21:08.889Z,-0.56
2023-02-22T05:23:39.879Z,-0.60
2023-02-22T05:26:11.618Z,-0.65
2023-02-22T05:28:41.407Z,-0.70
2023-02-22T05:31:10.994Z,-0.74
2023-02-22T05:33:40.580Z,-0.78
2023-02-22T05:36:10.970Z,-0.80
2023-02-22T05:38:44.688Z,-0.83
2023-02-22T05:41:15.135Z,-0.86
2023-02-22T05:43:44.779Z,-0.84
2023-02-22T05:46:15.319Z,-0.83
2023-02-22T05:48:44.742Z,-0.83
2023-02-22T05:51:14.383Z,-0.81
2023-02-22T05:53:45.243Z,-0.85
2023-02-22T05:56:15.511Z,-0.90
2023-02-22T05:58:45.198Z,-0.93
2023-02-22T06:01:14.615Z,-0.94
2023-02-22T06:03:44.101Z,-0.96
2023-02-22T06:06:13.622Z,-0.99
2023-02-22T06:08:44.797Z,-1.00
2023-02-22T06:11:14.550Z,-0.98
2023-02-22T06:13:44.080Z,-1.04
2023-02-22T06:16:13.518Z,-1.06
2023-02-22T06:18:42.925Z,-1.08
2023-02-22T06:21:12.448Z,-1.12
2023-02-22T06:23:41.856Z,-1.09
2023-02-22T06:26:12.603Z,-1.08
2023-02-22T06:28:41.983Z,-1.08
2023-02-22T06:31:11.454Z,-1.08
2023-02-22T06:33:40.932Z,-1.05
2023-02-22T06:36:11.418Z,-0.91
2023-02-22T06:38:40.805Z,-0.74
2023-02-22T06:41:11.791Z,-0.65
2023-02-22T06:43:41.234Z,-0.60
2023-02-22T06:46:12.103Z,-0.57
2023-02-22T06:48:41.647Z,-0.55
2023-02-22T06:51:11.684Z,-0.53
2023-02-22T06:53:41.103Z,-0.51
2023-02-22T06:56:11.902Z,-0.49
2023-02-22T06:58:41.343Z,-0.45
2023-02-22T07:01:10.832Z,-0.44
2023-02-22T07:03:40.407Z,-0.43
2023-02-22T07:06:10.712Z,-0.41
2023-02-22T07:08:40.203Z,-0.37
2023-02-22T07:11:09.668Z,-0.33
2023-02-22T07:13:41.466Z,-0.30
2023-02-22T07:16:14.643Z,-0.25
2023-02-22T07:18:44.137Z,-0.22
2023-02-22T07:21:13.582Z,-0.15
2023-02-22T07:23:43.026Z,-0.07
2023-02-22T07:26:14.081Z,0.05
2023-02-22T07:28:45.264Z,0.18
2023-02-22T07:31:15.153Z,0.29
2023-02-22T07:33:47.204Z,0.40
2023-02-22T07:36:17.942Z,0.49
2023-02-22T07:38:47.560Z,0.59
2023-02-22T07:41:17.397Z,0.70
2023-02-22T07:43:48.429Z,0.87
2023-02-22T07:46:17.945Z,0.97
2023-02-22T07:48:47.339Z,1.07
2023-02-22T07:51:20.787Z,1.16
2023-02-22T07:53:50.338Z,1.23
2023-02-22T07:56:19.866Z,1.36
2023-02-22T07:58:50.616Z,1.46
2023-02-22T08:01:20.111Z,1.58
2023-02-22T08:03:49.678Z,1.65
2023-02-22T08:06:20.872Z,1.75
2023-02-22T08:08:50.316Z,1.85
2023-02-22T08:11:19.918Z,1.96
2023-02-22T08:13:50.689Z,2.06
2023-02-22T08:16:20.098Z,2.13
2023-02-22T08:18:49.578Z,2.20
2023-02-22T08:21:19.169Z,2.30
2023-02-22T08:23:54.176Z,2.40
2023-02-22T08:26:25.306Z,2.50
2023-02-22T08:28:56.911Z,2.64
2023-02-22T08:31:26.343Z,2.78
2023-02-22T08:33:55.979Z,2.91
2023-02-22T08:36:25.426Z,3.01
2023-02-22T08:38:54.821Z,3.18
2023-02-22T08:41:24.229Z,3.30
2023-02-22T08:43:55.051Z,3.38
2023-02-22T08:46:24.431Z,3.52
2023-02-22T08:48:54.802Z,3.68
2023-02-22T08:51:25.499Z,3.90
2023-02-22T08:53:55.968Z,4.04
2023-02-22T08:56:25.418Z,4.21
2023-02-22T08:58:57.385Z,4.33
2023-02-22T09:01:33.419Z,4.53
2023-02-22T09:04:03.627Z,4.68
2023-02-22T09:06:33.524Z,4.81
2023-02-22T09:09:03.528Z,4.97
2023-02-22T09:11:32.884Z,5.14
2023-02-22T09:14:03.633Z,5.33
2023-02-22T09:16:34.233Z,5.55
2023-02-22T09:19:03.744Z,5.71
2023-02-22T09:21:33.391Z,5.98
2023-02-22T09:24:08.285Z,6.19
2023-02-22T09:26:39.383Z,6.41
2023-02-22T09:29:10.801Z,6.55
2023-02-22T09:31:42.529Z,6.63
2023-02-22T09:34:13.745Z,6.77
2023-02-22T09:36:43.854Z,7.01
2023-02-22T09:39:15.409Z,7.14
2023-02-22T09:41:58.690Z,7.26
2023-02-22T09:44:40.097Z,7.36
2023-02-22T09:47:19.063Z,7.40
2023-02-22T09:49:59.886Z,7.45
2023-02-22T09:52:34.561Z,7.48
2023-02-22T09:55:23.219Z,7.69
2023-02-22T09:57:55.496Z,7.87
2023-02-22T10:00:33.662Z,8.02
2023-02-22T10:03:22.721Z,8.11
2023-02-22T10:06:01.945Z,8.21
2023-02-22T10:08:35.734Z,8.38
2023-02-22T10:11:17.640Z,8.54
2023-02-22T10:14:03.196Z,8.73
2023-02-22T10:16:42.996Z,8.88
2023-02-22T10:19:28.024Z,8.97
2023-02-22T10:22:21.859Z,9.21
2023-02-22T10:25:01.392Z,9.31
2023-02-22T10:27:35.569Z,9.34
2023-02-22T10:30:24.827Z,9.48
2023-02-22T10:33:05.788Z,9.60
2023-02-22T10:35:41.040Z,9.70
2023-02-22T10:38:20.441Z,9.90
2023-02-22T10:40:57.140Z,10.18
2023-02-22T10:43:27.641Z,10.41
2023-02-22T10:46:01.825Z,10.50
2023-02-22T10:48:37.053Z,10.62
2023-02-22T10:51:09.850Z,10.64
2023-02-22T10:53:39.831Z,10.63
2023-02-22T10:56:20.577Z,10.75
2023-02-22T10:58:57.533Z,10.99
2023-02-22T11:01:36.497Z,11.07
2023-02-22T11:04:14.868Z,11.10
2023-02-22T11:06:48.865Z,11.09
2023-02-22T11:09:22.487Z,11.09
2023-02-22T11:12:11.011Z,11.17
2023-02-22T11:14:40.434Z,11.23
2023-02-22T11:17:14.106Z,11.26
2023-02-22T11:19:50.394Z,11.31
2023-02-22T11:22:29.282Z,11.36
2023-02-22T11:25:03.942Z,11.39
2023-02-22T11:27:39.142Z,11.39
2023-02-22T11:30:23.706Z,11.44
2023-02-22T11:32:58.421Z,11.58
2023-02-22T11:35:41.425Z,11.79
2023-02-22T11:38:23.463Z,11.83
2023-02-22T11:41:21.988Z,12.00
2023-02-22T11:43:54.304Z,12.23
2023-02-22T11:46:27.112Z,12.32
2023-02-22T11:49:02.082Z,12.27
2023-02-22T11:52:01.514Z,12.19
2023-02-22T11:54:55.010Z,12.11
2023-02-22T11:57:53.303Z,12.16
2023-02-22T12:00:33.442Z,12.33
2023-02-22T12:03:33.616Z,12.39
2023-02-22T12:06:27.385Z,12.42
2023-02-22T12:09:14.916Z,12.50
2023-02-22T12:12:00.831Z,12.58
2023-02-22T12:14:43.339Z,12.73
2023-02-22T12:17:30.822Z,12.90
2023-02-22T12:20:09.882Z,12.93
2023-02-22T12:23:01.027Z,13.01
2023-02-22T12:25:38.802Z,13.22
2023-02-22T12:28:24.930Z,13.30
2023-02-22T12:31:08.106Z,13.43
2023-02-22T12:33:51.466Z,13.46
2023-02-22T12:36:27.875Z,13.55
2023-02-22T12:39:07.554Z,13.54
2023-02-22T12:41:46.634Z,13.60
2023-02-22T12:44:24.854Z,13.55
2023-02-22T12:46:57.180Z,13.63
2023-02-22T12:49:35.857Z,13.60
2023-02-22T12:52:21.839Z,13.51
2023-02-22T12:55:00.738Z,13.57
2023-02-22T12:57:44.472Z,13.53
2023-02-22T13:00:26.220Z,13.51
2023-02-22T13:03:02.588Z,13.42
2023-02-22T13:05:39.578Z,13.38
2023-02-22T13:08:27.783Z,13.41
2023-02-22T13:11:09.962Z,13.48
2023-02-22T13:13:55.616Z,13.51
2023-02-22T13:16:42.011Z,13.61
2023-02-22T13:19:27.505Z,13.81
2023-02-22T13:22:03.915Z,13.96
2023-02-22T13:24:47.194Z,14.25
2023-02-22T13:27:22.785Z,14.51
2023-02-22T13:29:59.892Z,14.90
2023-02-22T13:32:53.980Z,15.09
2023-02-22T13:36:06.850Z,15.30
2023-02-22T13:39:17.921Z,15.30
2023-02-22T13:42:14.148Z,15.32
2023-02-22T13:45:37.472Z,15.22
2023-02-22T13:48:49.831Z,15.32
2023-02-22T13:51:45.276Z,15.41
2023-02-22T13:54:23.918Z,15.56
2023-02-22T13:56:56.839Z,15.72
2023-02-22T13:59:33.304Z,15.82
2023-02-22T14:02:07.989Z,15.67
2023-02-22T14:04:42.122Z,15.61
2023-02-22T14:07:49.113Z,15.57
2023-02-22T14:10:49.982Z,15.47
2023-02-22T14:13:22.528Z,15.38
2023-02-22T14:16:25.250Z,15.46
2023-02-22T14:19:06.962Z,15.28
2023-02-22T14:21:37.077Z,15.23
2023-02-22T14:24:14.773Z,15.14
2023-02-22T14:26:59.393Z,14.96
2023-02-22T14:29:29.163Z,14.83
2023-02-22T14:32:07.529Z,14.67
2023-02-22T14:34:53.898Z,14.64
2023-02-22T14:37:29.863Z,14.71
2023-02-22T14:40:12.864Z,14.59
2023-02-22T14:42:46.960Z,14.53
2023-02-22T14:45:26.894Z,14.53
2023-02-22T14:48:11.559Z,14.49
2023-02-22T14:50:49.746Z,14.60
2023-02-22T14:53:30.182Z,14.60
2023-02-22T14:56:04.216Z,14.60
2023-02-22T14:58:41.871Z,14.65
2023-02-22T15:02:26.208Z,14.72
2023-02-22T15:04:57.320Z,14.75
2023-02-22T15:07:32.419Z,14.70
2023-02-22T15:10:21.600Z,14.65
2023-02-22T15:13:09.722Z,14.63
2023-02-22T15:15:47.493Z,14.54
2023-02-22T15:18:26.985Z,14.47
2023-02-22T15:21:05.762Z,14.40
2023-02-22T15:23:46.947Z,14.33
2023-02-22T15:26:25.403Z,14.32
2023-02-22T15:28:56.823Z,14.22
2023-02-22T15:31:33.047Z,14.13
2023-02-22T15:34:24.483Z,13.93
2023-02-22T15:36:58.463Z,13.77
2023-02-22T15:39:34.234Z,13.68
2023-02-22T15:42:08.781Z,13.54
2023-02-22T15:44:41.722Z,13.40
2023-02-22T15:47:18.095Z,13.29
2023-02-22T15:49:47.820Z,13.16
2023-02-22T15:52:23.964Z,13.07
2023-02-22T15:54:54.888Z,13.05
2023-02-22T15:57:27.416Z,12.98
2023-02-22T15:59:59.175Z,12.91
2023-02-22T16:02:41.542Z,12.79
2023-02-22T16:05:18.298Z,12.66
2023-02-22T16:07:52.146Z,12.55
2023-02-22T16:10:29.724Z,12.40
2023-02-22T16:13:16.658Z,12.21
2023-02-22T16:16:01.795Z,12.02
2023-02-22T16:18:36.066Z,11.84
2023-02-22T16:21:12.880Z,11.70
2023-02-22T16:23:49.388Z,11.56
2023-02-22T16:27:57.255Z,11.35
2023-02-22T16:30:37.348Z,11.15
2023-02-22T16:33:13.813Z,11.01
2023-02-22T16:35:51.793Z,10.84
2023-02-22T16:38:21.706Z,10.72
2023-02-22T16:40:55.146Z,10.61
2023-02-22T16:43:31.486Z,10.50
2023-02-22T16:46:06.781Z,10.41
2023-02-22T16:48:38.213Z,10.35
2023-02-22T16:51:15.365Z,10.31
2023-02-22T16:53:45.574Z,10.24
2023-02-22T16:56:18.871Z,10.14
2023-02-22T16:58:52.788Z,10.08
2023-02-22T17:01:24.411Z,9.97
2023-02-22T17:03:54.771Z,9.84
2023-02-22T17:06:24.188Z,9.70
2023-02-22T17:08:53.672Z,9.57
2023-02-22T17:11:40.791Z,9.43
2023-02-22T17:14:18.376Z,9.31
2023-02-22T17:16:49.212Z,9.20
2023-02-22T17:19:22.167Z,9.09
2023-02-22T17:21:51.918Z,9.00
2023-02-22T17:24:24.634Z,8.94
2023-02-22T17:26:54.085Z,8.87
2023-02-22T17:29:23.544Z,8.76
2023-02-22T17:31:55.875Z,8.64
2023-02-22T17:34:26.023Z,8.51
2023-02-22T17:36:55.825Z,8.41
2023-02-22T17:39:27.277Z,8.31
2023-02-22T17:41:57.781Z,8.23
2023-02-22T17:44:30.003Z,8.13
2023-02-22T17:47:01.048Z,8.02
2023-02-22T17:49:30.488Z,7.90
2023-02-22T17:51:59.939Z,7.74
2023-02-22T17:54:30.819Z,7.67
2023-02-22T17:57:00.256Z,7.60
2023-02-22T17:59:29.686Z,7.47
2023-02-22T18:02:01.038Z,7.38
2023-02-22T18:04:33.726Z,7.27
2023-02-22T18:07:04.265Z,7.19
2023-02-22T18:09:34.096Z,7.12
2023-02-22T18:12:03.536Z,7.06
2023-02-22T18:14:33.115Z,6.99
2023-02-22T18:17:03.972Z,6.92
2023-02-22T18:19:33.455Z,6.85
2023-02-22T18:22:03.628Z,6.74
2023-02-22T18:24:35.292Z,6.65
2023-02-22T18:27:06.609Z,6.56
2023-02-22T18:29:36.144Z,6.45
2023-02-22T18:32:12.479Z,6.32
2023-02-22T18:35:59.573Z,6.12
2023-02-22T18:38:29.225Z,5.98
2023-02-22T18:41:04.165Z,5.89
2023-02-22T18:43:35.573Z,5.78
2023-02-22T18:46:11.242Z,5.73
2023-02-22T18:48:42.111Z,5.94
2023-02-22T18:51:15.603Z,6.14
2023-02-22T18:53:47.764Z,6.27
2023-02-22T18:56:21.691Z,6.40
2023-02-22T18:58:55.302Z,6.56
2023-02-22T19:01:24.623Z,6.64
2023-02-22T19:03:55.490Z,6.72
2023-02-22T19:06:25.103Z,6.95
2023-02-22T19:08:54.622Z,7.10
2023-02-22T19:11:25.723Z,7.18
2023-02-22T19:13:58.651Z,7.36
2023-02-22T19:16:29.053Z,7.41
2023-02-22T19:19:00.674Z,7.50
2023-02-22T19:21:33.046Z,7.51
2023-02-22T19:24:06.534Z,7.56
2023-02-22T19:26:36.026Z,7.53
2023-02-22T19:29:08.334Z,7.50
2023-02-22T19:31:40.096Z,7.43
2023-02-22T19:34:14.924Z,7.41
2023-02-22T19:36:46.927Z,7.35
2023-02-22T19:39:19.244Z,7.23
2023-02-22T19:41:49.628Z,7.19
2023-02-22T19:44:19.067Z,7.12
2023-02-22T19:46:48.784Z,7.12
2023-02-22T19:49:19.789Z,7.08
2023-02-22T19:51:49.848Z,7.05
2023-02-22T19:54:21.472Z,7.02
2023-02-22T19:56:51.871Z,6.98
2023-02-22T19:59:23.065Z,6.99
2023-02-22T20:01:56.567Z,6.98
2023-02-22T20:04:30.453Z,6.97
2023-02-22T20:06:59.895Z,7.01
2023-02-22T20:09:36.303Z,7.01
2023-02-22T20:12:07.973Z,6.95
2023-02-22T20:14:38.680Z,6.87
2023-02-22T20:17:10.142Z,6.81
2023-02-22T20:19:42.395Z,6.75
2023-02-22T20:22:12.018Z,6.68
2023-02-22T20:24:41.967Z,6.54
2023-02-22T20:27:12.924Z,6.46
2023-02-22T20:29:42.907Z,6.37
2023-02-22T20:32:15.399Z,6.27
2023-02-22T20:34:49.346Z,6.18
2023-02-22T20:37:18.756Z,6.10
2023-02-22T20:39:48.209Z,6.16
2023-02-22T20:42:17.793Z,6.20
2023-02-22T20:44:47.204Z,6.24
2023-02-22T20:47:16.621Z,6.32
2023-02-22T20:49:46.174Z,6.33
2023-02-22T20:52:16.893Z,6.33
2023-02-22T20:54:46.419Z,6.30
2023-02-22T20:57:15.813Z,6.32
2023-02-22T20:59:46.175Z,6.34
2023-02-22T21:02:15.625Z,6.25
2023-02-22T21:04:45.147Z,6.24
2023-02-22T21:07:16.052Z,6.19
2023-02-22T21:09:45.676Z,6.23
2023-02-22T21:12:15.184Z,6.29
2023-02-22T21:14:45.126Z,6.31
2023-02-22T21:17:14.669Z,6.25
2023-02-22T21:19:44.751Z,6.18
2023-02-22T21:22:14.457Z,6.12
2023-02-22T21:24:45.194Z,6.05
2023-02-22T21:27:16.186Z,6.03
2023-02-22T21:29:45.626Z,6.05
2023-02-22T21:32:15.242Z,6.10
2023-02-22T21:34:44.969Z,6.20
2023-02-22T21:37:18.227Z,6.23
2023-02-22T21:39:50.115Z,6.22
2023-02-22T21:42:19.519Z,6.19
2023-02-22T21:44:54.314Z,6.15
2023-02-22T21:47:23.900Z,6.09
2023-02-22T21:49:53.390Z,6.08
2023-02-22T21:52:25.545Z,6.04
2023-02-22T21:54:56.309Z,6.02
2023-02-22T21:57:26.180Z,5.98
2023-02-22T21:59:55.656Z,6.02
2023-02-22T22:02:25.147Z,5.98
2023-02-22T22:04:56.272Z,6.00
2023-02-22T22:07:25.683Z,5.98
2023-02-22T22:09:57.412Z,6.05
2023-02-22T22:12:37.472Z,6.19
2023-02-22T22:15:10.238Z,6.25
2023-02-22T22:17:40.463Z,6.28
2023-02-22T22:20:14.730Z,6.23
2023-02-22T22:22:46.079Z,6.19
2023-02-22T22:25:18.088Z,6.19
2023-02-22T22:27:47.702Z,6.14
2023-02-22T22:30:17.634Z,6.17
2023-02-22T22:32:47.466Z,6.14
2023-02-22T22:35:17.331Z,6.07
2023-02-22T22:37:51.033Z,6.09
2023-02-22T22:40:22.065Z,6.07
2023-02-22T22:42:51.599Z,5.96
2023-02-22T22:45:21.265Z,5.91
2023-02-22T22:47:52.139Z,5.74
2023-02-22T22:50:26.336Z,5.71
2023-02-22T22:52:56.809Z,5.64
2023-02-22T22:55:27.668Z,5.53
2023-02-22T22:57:58.871Z,5.51
2023-02-22T23:00:36.126Z,5.48
2023-02-22T23:03:07.161Z,5.45
2023-02-22T23:05:42.175Z,5.42
2023-02-22T23:08:12.853Z,5.35
2023-02-22T23:10:43.747Z,5.30
2023-02-22T23:13:15.532Z,5.26
2023-02-22T23:15:47.504Z,5.23
2023-02-22T23:18:20.382Z,5.25
2023-02-22T23:20:55.303Z,5.32
2023-02-22T23:23:27.650Z,5.38
2023-02-22T23:26:18.224Z,5.47
2023-02-22T23:28:50.102Z,5.52
2023-02-22T23:31:19.908Z,5.59
2023-02-22T23:33:50.180Z,5.60
2023-02-22T23:36:21.019Z,5.63
2023-02-22T23:38:50.594Z,5.59
2023-02-22T23:41:24.909Z,5.59
2023-02-22T23:43:54.444Z,5.64
2023-02-22T23:46:27.211Z,5.56
2023-02-22T23:49:01.586Z,5.56
2023-02-22T23:51:39.194Z,5.54
2023-02-22T23:54:13.230Z,5.59
2023-02-22T23:56:47.273Z,5.59
2023-02-22T23:59:16.714Z,5.63
